Time;durP1;ratioP1;P1;durP2;ratioP2;P2;SDS_P1;SDS_P2;PMS_P1;PMS_P2;Temp;Humidity;BMP_temperature;BMP_pressure;BME280_temperature;BME280_humidity;BME280_pressure;Samples;Min_cycle;Max_cycle;Signal;HPM_P1;HPM_P2
2024/04/10 00:00:18;;;;;;;10.45;2.95;;;;;;;-146.27;71.68;45114.59;5398558;26;20015;-68
2024/04/10 00:02:43;;;;;;;16.52;2.88;;;;;;;-146.27;72.91;45134.50;5391188;26;20385;-66
2024/04/10 00:05:10;;;;;;;10.73;2.45;;;;;;;-146.27;73.20;45128.50;5405190;26;19999;-67
2024/04/10 00:07:36;;;;;;;15.27;3.70;;;;;;;-146.27;73.41;45098.66;5408237;26;20006;-68
2024/04/10 00:10:02;;;;;;;15.35;3.05;;;;;;;-146.27;74.14;45096.69;5393946;26;19999;-64
2024/04/10 00:12:28;;;;;;;15.93;3.13;;;;;;;-146.27;74.66;45074.78;5413559;26;19992;-69
2024/04/10 00:14:53;;;;;;;16.20;3.25;;;;;;;-146.27;74.33;45034.97;5413913;26;20010;-67
2024/04/10 00:17:19;;;;;;;12.73;3.38;;;;;;;-146.27;74.03;45027.03;5411783;26;20130;-66
2024/04/10 00:19:51;;;;;;;13.52;3.03;;;;;;;-146.27;73.78;45023.03;5414380;26;20451;-66
2024/04/10 00:22:16;;;;;;;12.95;3.28;;;;;;;-146.27;74.41;45027.03;5410838;26;19991;-68
2024/04/10 00:24:42;;;;;;;11.15;2.60;;;;;;;-146.27;73.73;44981.25;5400616;26;20702;-65
2024/04/10 00:27:07;;;;;;;14.93;3.08;;;;;;;-146.27;73.89;44963.34;5414913;26;20440;-72
2024/04/10 00:29:33;;;;;;;14.88;2.30;;;;;;;-146.27;73.28;44983.25;5410806;26;20007;-71
2024/04/10 00:31:59;;;;;;;15.65;2.80;;;;;;;-146.27;74.12;44979.25;5398149;26;20031;-71
2024/04/10 00:34:24;;;;;;;12.15;2.50;;;;;;;-146.27;74.57;45007.13;5395934;26;19991;-72
2024/04/10 00:36:49;;;;;;;13.27;2.90;;;;;;;-146.27;73.88;44919.56;5411747;26;20000;-73
2024/04/10 00:39:15;;;;;;;11.18;2.17;;;;;;;-146.27;73.63;44949.41;5411106;26;20341;-73
2024/04/10 00:41:40;;;;;;;11.23;2.17;;;;;;;-146.27;73.22;44911.59;5376258;26;20414;-72
2024/04/10 00:44:07;;;;;;;13.25;2.78;;;;;;;-146.27;72.65;44929.50;5418314;26;19995;-72
2024/04/10 00:46:33;;;;;;;16.55;3.03;;;;;;;-146.27;72.85;44919.56;5403578;26;20012;-72
2024/04/10 00:48:59;;;;;;;14.30;3.30;;;;;;;-146.27;73.55;44939.47;5390089;26;20444;-72
2024/04/10 00:51:25;;;;;;;12.32;2.38;;;;;;;-146.27;73.11;44921.56;5401233;26;19995;-71
2024/04/10 00:53:51;;;;;;;9.52;2.53;;;;;;;-146.27;72.77;44947.41;5375400;26;20061;-71
2024/04/10 00:56:17;;;;;;;13.55;2.92;;;;;;;-146.27;72.13;44955.38;5407447;26;20309;-71
2024/04/10 00:58:43;;;;;;;6.55;2.50;;;;;;;-146.27;71.00;45003.16;5402892;26;20008;-72
2024/04/10 01:01:10;;;;;;;16.70;3.33;;;;;;;-146.27;70.32;44991.19;5402897;26;19996;-71
2024/04/10 01:03:38;;;;;;;9.13;2.15;;;;;;;-146.27;69.68;45064.84;5381387;26;20000;-72
2024/04/10 01:06:08;;;;;;;17.05;3.03;;;;;;;-146.27;69.66;45102.66;5409434;26;20325;-70
2024/04/10 01:08:35;;;;;;;12.93;2.58;;;;;;;-146.27;68.91;45130.50;5409636;26;20072;-72
2024/04/10 01:11:03;;;;;;;12.70;2.95;;;;;;;-146.27;69.02;45146.44;5404827;26;20000;-70
2024/04/10 01:13:29;;;;;;;12.88;2.70;;;;;;;-146.27;68.87;45150.41;5409786;26;20008;-71
2024/04/10 01:15:55;;;;;;;9.77;2.60;;;;;;;-146.27;68.38;45132.50;5412514;26;20093;-70
2024/04/10 01:18:21;;;;;;;17.27;2.80;;;;;;;-146.27;68.34;45176.28;5412004;26;20011;-72
2024/04/10 01:20:48;;;;;;;13.18;2.40;;;;;;;-146.27;68.45;45124.53;5411402;26;19996;-72
2024/04/10 01:23:15;;;;;;;9.57;2.72;;;;;;;-146.27;68.40;45140.47;5411836;26;20505;-72
2024/04/10 01:25:40;;;;;;;10.18;2.40;;;;;;;-146.27;68.29;45132.50;5394637;26;19992;-72
2024/04/10 01:28:06;;;;;;;11.88;2.78;;;;;;;-146.27;68.36;45156.38;5411787;26;20014;-70
2024/04/10 01:30:31;;;;;;;12.63;2.33;;;;;;;-146.27;68.54;45168.31;5412851;26;20450;-71
2024/04/10 01:32:56;;;;;;;20.30;2.88;;;;;;;-146.27;68.55;45182.25;5409170;26;19995;-71
2024/04/10 01:35:22;;;;;;;8.02;2.40;;;;;;;-146.27;68.94;45226.03;5404478;26;20064;-72
2024/04/10 01:37:47;;;;;;;16.40;2.20;;;;;;;-146.27;68.28;45228.03;5406665;26;20435;-71
2024/04/10 01:40:13;;;;;;;12.05;2.13;;;;;;;-146.27;68.40;45230.00;5408434;26;20018;-72
2024/04/10 01:42:45;;;;;;;12.48;2.70;;;;;;;-146.27;68.79;45235.97;5407544;26;20007;-71
2024/04/10 01:45:11;;;;;;;12.38;3.20;;;;;;;-146.27;70.05;45212.09;5381555;26;20426;-69
2024/04/10 01:47:37;;;;;;;10.80;2.45;;;;;;;-146.27;71.50;45164.34;5412567;26;20067;-72
2024/04/10 01:50:03;;;;;;;13.93;3.08;;;;;;;-146.27;71.77;45134.50;5410363;26;20455;-71
2024/04/10 01:52:28;;;;;;;8.70;2.25;;;;;;;-146.27;72.68;45168.31;5411247;26;20401;-72
2024/04/10 01:54:53;;;;;;;12.15;2.35;;;;;;;-146.27;73.05;45104.63;5411828;26;19992;-73
2024/04/10 01:57:19;;;;;;;13.15;2.30;;;;;;;-146.27;73.45;45098.66;5390718;26;20015;-71
2024/04/10 01:59:44;;;;;;;12.85;2.63;;;;;;;-146.27;73.01;45142.44;5399260;26;20007;-72
2024/04/10 02:02:10;;;;;;;14.57;2.95;;;;;;;-146.27;73.04;45118.56;5412096;26;20484;-70
2024/04/10 02:04:35;;;;;;;15.90;2.60;;;;;;;-146.27;73.72;45124.53;5409512;26;20006;-72
2024/04/10 02:07:01;;;;;;;7.95;2.10;;;;;;;-146.27;73.65;45124.53;5409625;26;19996;-70
2024/04/10 02:09:26;;;;;;;7.32;2.00;;;;;;;-146.27;73.45;45128.50;5408282;26;20420;-71
2024/04/10 02:11:52;;;;;;;10.43;1.90;;;;;;;-146.27;72.88;45116.56;5397071;26;20050;-69
2024/04/10 02:14:17;;;;;;;10.63;2.63;;;;;;;-146.27;72.79;45130.50;5399930;26;19992;-71
2024/04/10 02:16:43;;;;;;;15.88;3.28;;;;;;;-146.27;72.04;45090.72;5403636;26;20011;-72
2024/04/10 02:19:09;;;;;;;7.72;2.20;;;;;;;-146.27;71.53;45146.44;5411584;26;20039;-72
2024/04/10 02:21:35;;;;;;;12.93;3.15;;;;;;;-146.27;71.89;45126.53;5409392;26;20019;-72
2024/04/10 02:24:00;;;;;;;12.70;2.25;;;;;;;-146.27;71.19;45112.59;5408621;26;20004;-69
2024/04/10 02:26:26;;;;;;;10.60;2.00;;;;;;;-146.27;71.42;45126.53;5410334;26;20478;-72
2024/04/10 02:28:52;;;;;;;12.45;2.70;;;;;;;-146.27;71.13;45172.28;5408017;26;20003;-72
2024/04/10 02:31:17;;;;;;;13.48;2.22;;;;;;;-146.27;70.81;45162.34;5391537;26;19996;-71
2024/04/10 02:33:43;;;;;;;14.65;2.38;;;;;;;-146.27;70.04;45178.28;5395005;26;20004;-72
2024/04/10 02:36:08;;;;;;;13.85;2.05;;;;;;;-146.27;69.52;45184.25;5400432;26;20000;-70
2024/04/10 02:38:35;;;;;;;19.08;2.60;;;;;;;-146.27;69.29;45202.16;5409174;26;20003;-72
2024/04/10 02:41:01;;;;;;;15.73;3.13;;;;;;;-146.27;69.48;45190.22;5406786;26;20072;-71
2024/04/10 02:43:27;;;;;;;9.32;1.95;;;;;;;-146.27;69.28;45178.28;5401860;26;20045;-72
2024/04/10 02:45:57;;;;;;;17.63;2.28;;;;;;;-146.27;69.02;45214.09;5399722;26;20008;-72
2024/04/10 02:48:23;;;;;;;19.00;2.53;;;;;;;-146.27;69.04;45230.00;5407960;26;19992;-73
2024/04/10 02:50:49;;;;;;;12.77;2.42;;;;;;;-146.27;68.12;45180.25;5412651;26;19995;-73
2024/04/10 02:53:15;;;;;;;18.63;2.95;;;;;;;-146.27;68.62;45200.16;5411640;26;19992;-71
2024/04/10 02:55:41;;;;;;;11.23;2.28;;;;;;;-146.27;68.60;45180.25;5410798;26;19996;-71
2024/04/10 02:58:07;;;;;;;12.77;1.95;;;;;;;-146.27;68.71;45196.19;5409486;26;19996;-71
2024/04/10 03:00:33;;;;;;;13.65;2.13;;;;;;;-146.27;68.32;45251.91;5379240;26;20010;-71
2024/04/10 03:02:58;;;;;;;11.20;2.35;;;;;;;-146.27;67.61;45194.19;5411329;26;19999;-71
2024/04/10 03:05:24;;;;;;;18.85;2.63;;;;;;;-146.27;67.64;45261.84;5408428;26;20442;-71
2024/04/10 03:07:49;;;;;;;14.70;2.22;;;;;;;-146.27;68.31;45273.78;5411087;26;19995;-72
2024/04/10 03:10:17;;;;;;;15.10;2.85;;;;;;;-146.27;67.60;45224.03;5401506;26;20008;-71
2024/04/10 03:12:42;;;;;;;18.58;1.98;;;;;;;-146.27;67.13;45234.00;5409085;26;20010;-72
2024/04/10 03:15:09;;;;;;;17.65;2.97;;;;;;;-146.27;67.58;45243.94;5408031;26;20000;-72
2024/04/10 03:17:35;;;;;;;7.63;1.85;;;;;;;-146.27;67.68;45214.09;5377662;26;20003;-71
2024/04/10 03:20:00;;;;;;;10.80;1.88;;;;;;;-146.27;67.57;45198.16;5408515;26;20460;-73
2024/04/10 03:22:25;;;;;;;13.52;2.25;;;;;;;-146.27;67.78;45253.91;5409580;26;20010;-71
2024/04/10 03:24:50;;;;;;;13.38;2.90;;;;;;;-146.27;67.94;45257.88;5409497;26;20320;-71
2024/04/10 03:27:16;;;;;;;16.83;2.22;;;;;;;-146.27;67.57;45251.91;5411325;26;20326;-72
2024/04/10 03:29:42;;;;;;;13.20;2.00;;;;;;;-146.27;67.80;45234.00;5408527;26;20003;-71
2024/04/10 03:32:07;;;;;;;7.13;2.03;;;;;;;-146.27;67.43;45226.03;5407974;26;20000;-71
2024/04/10 03:34:32;;;;;;;8.88;1.75;;;;;;;-146.27;68.05;45321.56;5409911;26;20006;-70
2024/04/10 03:36:58;;;;;;;15.98;2.42;;;;;;;-146.27;67.57;45295.69;5411016;26;20003;-72
2024/04/10 03:39:23;;;;;;;13.75;3.10;;;;;;;-146.27;67.58;45281.75;5410440;26;20451;-71
2024/04/10 03:41:49;;;;;;;14.15;2.72;;;;;;;-146.27;67.37;45301.66;5409714;26;20000;-71
2024/04/10 03:44:15;;;;;;;10.52;2.38;;;;;;;-146.27;67.61;45307.63;5414819;26;20082;-70
2024/04/10 03:46:40;;;;;;;6.47;1.95;;;;;;;-146.27;67.71;45341.47;5414573;26;20507;-70
2024/04/10 03:49:06;;;;;;;7.10;1.77;;;;;;;-146.27;67.53;45361.38;5381025;26;20011;-71
2024/04/10 03:51:31;;;;;;;12.88;2.45;;;;;;;-146.27;67.31;45337.47;5411091;26;20068;-71
2024/04/10 03:53:56;;;;;;;12.55;1.60;;;;;;;-146.27;67.47;45309.63;5405021;26;20130;-71
2024/04/10 03:56:22;;;;;;;10.80;2.45;;;;;;;-146.27;67.50;45309.63;5410752;26;20000;-70
2024/04/10 03:58:51;;;;;;;12.70;2.25;;;;;;;-146.27;67.39;45333.50;5413552;26;19996;-72
2024/04/10 04:01:16;;;;;;;13.27;1.92;;;;;;;-146.27;67.55;45321.56;5414286;26;19995;-71
2024/04/10 04:03:42;;;;;;;15.73;2.35;;;;;;;-146.27;68.00;45323.56;5414176;26;20004;-69
2024/04/10 04:06:07;;;;;;;11.23;2.20;;;;;;;-146.27;67.55;45319.56;5405585;26;20800;-69
2024/04/10 04:08:32;;;;;;;14.95;1.63;;;;;;;-146.27;68.13;45343.44;5397470;26;20029;-72
2024/04/10 04:10:58;;;;;;;19.58;2.10;;;;;;;-146.27;68.01;45331.50;5400484;26;20456;-70
2024/04/10 04:13:23;;;;;;;9.52;2.85;;;;;;;-146.27;68.08;45313.59;5415286;26;20036;-71
2024/04/10 04:15:49;;;;;;;16.42;3.10;;;;;;;-146.27;68.08;45305.63;5405114;26;20011;-71
2024/04/10 04:18:14;;;;;;;10.77;2.17;;;;;;;-146.27;68.11;45321.56;5383175;26;19996;-70
2024/04/10 04:20:40;;;;;;;12.18;2.97;;;;;;;-146.27;68.58;45317.56;5411787;26;20015;-72
2024/04/10 04:23:06;;;;;;;13.80;1.95;;;;;;;-146.27;68.49;45301.66;5354085;26;19996;-72
2024/04/10 04:25:34;;;;;;;10.57;2.00;;;;;;;-146.27;68.88;45307.63;5386678;26;20043;-71
2024/04/10 04:28:01;;;;;;;10.73;2.17;;;;;;;-146.27;69.15;45305.63;5412142;26;19996;-71
2024/04/10 04:30:27;;;;;;;14.10;3.22;;;;;;;-146.27;68.86;45323.56;5381749;26;20057;-71
2024/04/10 04:32:53;;;;;;;15.10;2.42;;;;;;;-146.27;68.92;45309.63;5411562;26;19995;-71
2024/04/10 04:35:19;;;;;;;14.75;3.50;;;;;;;-146.27;69.13;45321.56;5409690;26;20031;-70
2024/04/10 04:37:53;;;;;;;17.40;2.10;;;;;;;-146.27;69.08;45305.63;5381908;26;20084;-70
2024/04/10 04:40:19;;;;;;;11.95;1.98;;;;;;;-146.27;69.49;45345.44;5408695;26;20012;-72
2024/04/10 04:42:44;;;;;;;20.25;2.53;;;;;;;-146.27;69.82;45289.72;5414341;26;20436;-73
2024/04/10 04:45:10;;;;;;;14.73;2.22;;;;;;;-146.27;69.48;45321.56;5411858;26;20079;-73
2024/04/10 04:47:35;;;;;;;13.48;2.20;;;;;;;-146.27;69.72;45321.56;5409123;26;20085;-73
2024/04/10 04:50:00;;;;;;;14.80;2.00;;;;;;;-146.27;69.62;45311.59;5379219;26;20066;-74
2024/04/10 04:52:26;;;;;;;9.10;2.10;;;;;;;-146.27;69.54;45313.59;5408761;26;19996;-73
2024/04/10 04:54:51;;;;;;;7.82;1.95;;;;;;;-146.27;69.51;45359.38;5409482;26;20007;-72
2024/04/10 04:57:16;;;;;;;10.15;2.20;;;;;;;-146.27;69.54;45341.47;5395784;26;20011;-72
2024/04/10 04:59:42;;;;;;;10.40;2.17;;;;;;;-146.27;69.67;45381.25;5414333;26;20023;-72
2024/04/10 05:02:08;;;;;;;12.93;2.38;;;;;;;-146.27;69.57;45377.28;5414281;26;19999;-71
2024/04/10 05:07:17;;;;;;;13.77;1.92;;;;;;;-146.27;69.27;45373.31;5395949;26;20007;-72
2024/04/10 05:09:48;;;;;;;8.93;1.95;;;;;;;-146.27;69.26;45401.16;5406914;26;19995;-72
2024/04/10 05:12:13;;;;;;;7.55;1.67;;;;;;;-146.27;69.42;45429.03;5390894;26;20069;-73
2024/04/10 05:14:38;;;;;;;15.73;1.95;;;;;;;-146.27;69.31;45478.78;5390481;26;19996;-71
2024/04/10 05:17:04;;;;;;;9.93;2.03;;;;;;;-146.27;69.38;45470.81;5409015;26;20035;-72
2024/04/10 05:19:29;;;;;;;17.15;2.40;;;;;;;-146.27;69.57;45494.72;5412930;26;20388;-72
2024/04/10 05:21:55;;;;;;;9.95;2.05;;;;;;;-146.27;69.45;45532.53;5403442;26;20375;-72
2024/04/10 05:24:23;;;;;;;17.65;2.17;;;;;;;-146.27;69.14;45580.28;5393629;26;20336;-72
2024/04/10 05:26:49;;;;;;;15.63;2.33;;;;;;;-146.27;69.06;45586.25;5409524;26;20390;-72
2024/04/10 05:29:14;;;;;;;11.05;1.98;;;;;;;-146.27;69.42;45638.00;5399288;26;20007;-71
2024/04/10 05:31:39;;;;;;;8.52;1.98;;;;;;;-146.27;69.29;45701.69;5404643;26;20034;-71
2024/04/10 05:34:05;;;;;;;15.38;2.13;;;;;;;-146.27;68.85;45699.72;5410453;26;20435;-72
2024/04/10 05:36:30;;;;;;;12.68;2.10;;;;;;;-146.27;68.83;45695.72;5403025;26;19999;-72
2024/04/10 05:39:00;;;;;;;19.15;1.90;;;;;;;-146.27;68.73;45699.72;5398294;26;20001;-73
2024/04/10 05:41:26;;;;;;;15.32;2.10;;;;;;;-146.27;68.68;45681.81;5391246;26;20011;-74
2024/04/10 05:43:51;;;;;;;10.15;2.00;;;;;;;-146.27;68.82;45739.53;5411410;26;20619;-73
2024/04/10 05:46:17;;;;;;;12.85;2.22;;;;;;;-146.27;68.69;45727.56;5404048;26;20024;-73
2024/04/10 05:48:42;;;;;;;11.20;2.38;;;;;;;-146.27;68.52;45739.53;5366041;26;20068;-72
2024/04/10 05:51:11;;;;;;;12.18;2.60;;;;;;;-146.27;68.74;45787.28;5403343;26;19999;-72
2024/04/10 05:53:36;;;;;;;16.25;1.60;;;;;;;-146.27;68.74;45801.22;5397666;26;20027;-71
2024/04/10 05:56:04;;;;;;;9.40;1.80;;;;;;;-146.27;68.98;45775.34;5411588;26;20010;-71
2024/04/10 05:58:30;;;;;;;11.15;2.25;;;;;;;-146.27;68.93;45793.25;5408228;26;20070;-73
2024/04/10 06:00:56;;;;;;;10.57;2.85;;;;;;;-146.27;68.62;45811.19;5413572;26;19995;-73
2024/04/10 06:03:21;;;;;;;15.43;2.03;;;;;;;-146.27;68.17;45805.19;5409445;26;20003;-72
2024/04/10 06:05:47;;;;;;;10.10;1.52;;;;;;;-146.27;68.28;45775.34;5411083;26;20317;-73
2024/04/10 06:08:12;;;;;;;9.20;1.48;;;;;;;-146.27;68.11;45787.28;5380684;26;20040;-73
2024/04/10 06:10:37;;;;;;;12.57;2.25;;;;;;;-146.27;68.53;45825.09;5411328;26;20015;-72
2024/04/10 06:13:03;;;;;;;11.55;1.65;;;;;;;-146.27;68.04;45775.34;5410114;26;20043;-73
2024/04/10 06:15:28;;;;;;;10.38;1.75;;;;;;;-146.27;67.67;45787.28;5396964;26;20011;-73
2024/04/10 06:17:54;;;;;;;9.48;1.92;;;;;;;-146.27;67.93;45801.22;5402478;26;19999;-73
2024/04/10 06:20:19;;;;;;;12.10;2.00;;;;;;;-146.27;68.35;45805.19;5398531;26;20003;-72
2024/04/10 06:22:45;;;;;;;9.75;1.73;;;;;;;-146.27;68.00;45801.22;5400380;26;20000;-73
2024/04/10 06:25:10;;;;;;;10.70;1.80;;;;;;;-146.27;67.64;45797.25;5402135;26;20071;-73
2024/04/10 06:27:36;;;;;;;11.27;1.63;;;;;;;-146.27;68.08;45799.22;5413129;26;20440;-73
2024/04/10 06:30:01;;;;;;;14.63;2.00;;;;;;;-146.27;67.23;45793.25;5405792;26;20075;-72
2024/04/10 06:32:27;;;;;;;14.75;1.98;;;;;;;-146.27;67.05;45781.31;5409894;26;20011;-72
2024/04/10 06:34:52;;;;;;;11.75;2.08;;;;;;;-146.27;66.49;45803.22;5403926;26;19995;-71
2024/04/10 06:37:19;;;;;;;10.77;1.42;;;;;;;-146.27;66.34;45839.03;5411560;26;19999;-71
2024/04/10 06:39:46;;;;;;;11.75;2.80;;;;;;;-146.27;65.78;45850.97;5418545;26;19992;-71
2024/04/10 06:42:11;;;;;;;13.48;2.33;;;;;;;-146.27;65.43;45835.06;5381592;26;20448;-71
2024/04/10 06:44:36;;;;;;;12.15;1.70;;;;;;;-146.27;65.20;45801.22;5376015;26;19997;-72
2024/04/10 06:47:02;;;;;;;9.43;1.55;;;;;;;-146.27;64.80;45827.09;5375350;26;20007;-74
2024/04/10 06:49:28;;;;;;;15.50;1.77;;;;;;;-146.27;63.93;45831.09;5371002;26;19997;-72
2024/04/10 06:51:55;;;;;;;10.40;1.75;;;;;;;-146.27;63.87;45849.00;5374354;26;20008;-71
2024/04/10 06:54:21;;;;;;;9.75;1.65;;;;;;;-146.27;62.73;45874.88;5369331;26;20510;-73
2024/04/10 06:56:46;;;;;;;7.68;1.65;;;;;;;-146.27;63.10;45856.97;5360072;26;20000;-72
2024/04/10 06:59:13;;;;;;;9.57;2.67;;;;;;;-146.27;63.46;45884.81;5370270;26;20007;-71
2024/04/10 07:01:38;;;;;;;12.93;1.80;;;;;;;-146.27;63.51;45902.75;5374545;26;20455;-72
2024/04/10 07:04:04;;;;;;;11.40;1.88;;;;;;;-146.27;62.96;45860.94;5360799;26;20032;-73
2024/04/10 07:06:30;;;;;;;12.45;2.13;;;;;;;-146.27;63.26;45914.69;5374338;26;20073;-72
2024/04/10 07:08:56;;;;;;;14.50;2.47;;;;;;;-146.27;62.71;45938.56;5365488;26;19997;-71
2024/04/10 07:11:22;;;;;;;15.00;2.00;;;;;;;-146.27;61.86;45970.41;5345970;26;20334;-72
2024/04/10 07:13:49;;;;;;;7.80;1.80;;;;;;;-146.27;61.07;45948.53;5370521;26;20070;-73
2024/04/10 07:16:15;;;;;;;6.18;1.30;;;;;;;-146.27;60.90;45920.66;5372157;26;20078;-71
2024/04/10 07:18:40;;;;;;;9.38;1.70;;;;;;;-146.27;60.82;45966.44;5379982;26;20011;-71
2024/04/10 07:21:07;;;;;;;7.47;1.83;;;;;;;-146.27;60.01;45990.31;5380665;26;20122;-72
2024/04/10 07:23:36;;;;;;;9.80;1.95;;;;;;;-146.27;58.84;45994.31;5378363;26;19996;-71
2024/04/10 07:26:14;;;;;;;9.85;1.80;;;;;;;-146.27;58.97;46004.25;5377415;26;19996;-72
2024/04/10 07:28:43;;;;;;;8.38;1.92;;;;;;;-146.27;58.25;46002.25;5363816;26;20003;-72
2024/04/10 07:31:13;;;;;;;9.50;1.70;;;;;;;-146.27;57.52;46044.06;5379468;26;20044;-72
2024/04/10 07:33:38;;;;;;;10.95;1.58;;;;;;;-146.27;57.35;46016.19;5379176;26;20011;-70
2024/04/10 07:36:12;;;;;;;8.40;1.77;;;;;;;-146.27;58.40;46107.75;5376156;26;19996;-71
2024/04/10 07:38:38;;;;;;;9.57;2.08;;;;;;;-146.27;58.01;46079.91;5379964;26;20389;-71
2024/04/10 07:41:04;;;;;;;10.98;2.50;;;;;;;-146.27;57.63;46063.97;5364655;26;20016;-72
2024/04/10 07:43:31;;;;;;;8.10;1.83;;;;;;;-146.27;57.19;46026.16;5407073;26;19995;-72
2024/04/10 07:45:57;;;;;;;10.15;2.05;;;;;;;-146.27;55.86;46073.91;5415635;26;20046;-72
2024/04/10 07:48:22;;;;;;;7.88;1.73;;;;;;;-146.27;56.05;46050.03;5412384;26;19995;-72
2024/04/10 07:50:48;;;;;;;11.82;1.77;;;;;;;-146.27;55.39;46058.00;5380303;26;20119;-71
2024/04/10 07:53:13;;;;;;;9.60;1.58;;;;;;;-146.27;56.27;46022.16;5406733;26;20018;-72
2024/04/10 07:55:39;;;;;;;5.63;1.33;;;;;;;-146.27;55.28;46067.94;5403907;26;20015;-71
2024/04/10 07:58:04;;;;;;;4.57;1.10;;;;;;;-146.27;54.23;46107.75;5407120;26;19995;-71
2024/04/10 08:00:29;;;;;;;8.75;1.20;;;;;;;-146.27;53.76;46091.84;5411712;26;19999;-73
2024/04/10 08:02:55;;;;;;;13.38;1.83;;;;;;;-146.27;54.57;46081.88;5411265;26;19999;-70
2024/04/10 08:05:21;;;;;;;11.00;1.83;;;;;;;-146.27;54.47;46034.09;5380473;26;20076;-72
2024/04/10 08:07:46;;;;;;;12.75;1.35;;;;;;;-146.27;54.30;46061.97;5404653;26;20007;-72
2024/04/10 08:10:12;;;;;;;12.02;1.23;;;;;;;-146.27;54.16;46054.00;5399947;26;20443;-72
2024/04/10 08:12:38;;;;;;;6.88;1.35;;;;;;;-146.27;51.22;46145.59;5385353;26;20000;-71
2024/04/10 08:15:04;;;;;;;5.38;1.30;;;;;;;-146.27;51.41;46097.81;5389754;26;20007;-71
2024/04/10 08:17:30;;;;;;;10.25;1.88;;;;;;;-146.27;51.52;46117.72;5414117;26;20483;-73
2024/04/10 08:19:56;;;;;;;11.35;1.45;;;;;;;-146.27;50.73;46151.56;5413002;26;20055;-72
2024/04/10 08:22:21;;;;;;;4.20;1.20;;;;;;;-146.27;50.04;46147.56;5387303;26;20038;-72
2024/04/10 08:24:46;;;;;;;7.78;1.40;;;;;;;-146.27;50.16;46153.53;5403377;26;19996;-73
2024/04/10 08:27:12;;;;;;;11.82;1.55;;;;;;;-146.27;50.23;46081.88;5403164;26;20015;-72
2024/04/10 08:29:38;;;;;;;6.57;1.10;;;;;;;-146.27;50.23;46137.63;5386692;26;20003;-70
2024/04/10 08:32:03;;;;;;;7.90;1.40;;;;;;;-146.27;49.89;46125.69;5346180;26;20000;-72
2024/04/10 08:34:29;;;;;;;12.13;1.30;;;;;;;-146.27;49.83;46141.59;5407132;26;20904;-71
2024/04/10 08:36:54;;;;;;;7.82;1.50;;;;;;;-146.27;50.41;46185.41;5379144;26;20045;-73
2024/04/10 08:39:20;;;;;;;5.95;1.35;;;;;;;-146.27;51.04;46141.59;5379813;26;19996;-72
2024/04/10 08:41:47;;;;;;;8.13;1.27;;;;;;;-146.27;50.77;46139.63;5383873;26;20011;-71
2024/04/10 08:44:15;;;;;;;6.43;1.40;;;;;;;-146.27;50.84;46129.66;5370222;26;19993;-72
2024/04/10 08:46:41;;;;;;;17.30;1.73;;;;;;;-146.27;52.37;46187.38;5369102;26;20032;-68
2024/04/10 08:49:09;;;;;;;12.35;1.73;;;;;;;-146.27;50.67;46229.19;5377184;26;20046;-66
2024/04/10 08:51:36;;;;;;;9.32;1.20;;;;;;;-146.27;50.17;46267.00;5343615;26;20065;-66
2024/04/10 08:54:01;;;;;;;8.95;1.27;;;;;;;-146.27;49.78;46211.28;5377996;26;20453;-65
2024/04/10 08:56:27;;;;;;;13.40;1.60;;;;;;;-146.27;50.38;46121.69;5378579;26;20007;-65
2024/04/10 08:58:55;;;;;;;7.55;1.27;;;;;;;-146.27;47.74;46267.00;5379146;26;19992;-68
2024/04/10 09:01:33;;;;;;;8.60;1.73;;;;;;;-146.27;46.73;46241.13;5379282;26;20000;-70
2024/04/10 09:04:09;;;;;;;12.65;1.70;;;;;;;-146.27;46.71;46233.16;5367077;26;20051;-66
2024/04/10 09:06:35;;;;;;;12.93;2.13;;;;;;;-146.27;46.65;46237.16;5379180;26;20490;-65
2024/04/10 09:09:06;;;;;;;7.72;1.25;;;;;;;-146.27;45.84;46257.06;5350915;26;20428;-67
2024/04/10 09:11:31;;;;;;;9.07;1.30;;;;;;;-146.27;45.02;46312.78;5378871;26;19996;-68
2024/04/10 09:14:05;;;;;;;6.05;1.13;;;;;;;-146.27;45.25;46376.50;5378389;26;20007;-67
2024/04/10 09:16:31;;;;;;;9.43;1.20;;;;;;;-146.27;45.74;46366.53;5377389;26;20000;-65
2024/04/10 09:19:16;;;;;;;9.90;1.20;;;;;;;-146.27;45.10;46358.59;5374981;26;20011;-66
2024/04/10 09:22:00;;;;;;;4.88;1.17;;;;;;;-146.27;44.03;46376.50;5366782;26;19993;-66
2024/04/10 09:24:29;;;;;;;;;;;;;;;-146.27;43.66;46440.19;5345436;26;20018;-66
2024/04/10 09:26:54;;;;;;;6.03;1.00;;;;;;;-146.27;43.84;46428.25;5344433;26;20364;-66
2024/04/10 09:29:24;;;;;;;7.40;0.75;;;;;;;-146.27;44.00;46436.22;5344280;26;19997;-66
2024/04/10 09:31:50;;;;;;;5.80;1.00;;;;;;;-146.27;42.16;46478.03;5346010;26;20012;-67
2024/04/10 09:34:20;;;;;;;9.82;1.10;;;;;;;-146.27;43.04;46412.34;5344005;26;20020;-66
2024/04/10 09:36:46;;;;;;;10.23;1.10;;;;;;;-146.27;42.29;46511.88;5373969;26;20437;-66
2024/04/10 09:39:12;;;;;;;5.47;0.90;;;;;;;-146.27;43.75;46499.94;5377282;26;20074;-66
2024/04/10 09:41:39;;;;;;;2.85;0.75;;;;;;;-146.27;41.99;46507.88;5380156;26;20010;-66
2024/04/10 09:44:05;;;;;;;9.18;1.70;;;;;;;-146.27;41.39;46599.47;5420036;26;20450;-66
2024/04/10 09:46:35;;;;;;;8.30;1.10;;;;;;;-146.27;41.21;46647.25;5413160;26;20072;-65
2024/04/10 09:49:23;;;;;;;5.57;0.80;;;;;;;-146.27;40.48;46637.28;5410211;26;20014;-66
2024/04/10 09:51:49;;;;;;;7.28;1.08;;;;;;;-146.27;40.40;46611.41;5407809;26;20014;-67
2024/04/10 09:54:16;;;;;;;4.68;0.90;;;;;;;-146.27;40.33;46637.28;5412485;26;20003;-66
2024/04/10 09:56:43;;;;;;;6.05;1.23;;;;;;;-146.27;39.00;46710.94;5414343;26;19995;-68
2024/04/10 09:59:12;;;;;;;7.03;0.90;;;;;;;-146.27;38.80;46804.53;5414265;26;20066;-67
2024/04/10 10:01:38;;;;;;;7.22;0.98;;;;;;;-146.27;39.17;46786.59;5412258;26;20000;-66
2024/04/10 10:04:03;;;;;;;3.63;0.60;;;;;;;-146.27;39.63;46784.63;5407229;26;20409;-67
2024/04/10 10:06:30;;;;;;;4.97;1.20;;;;;;;-146.27;39.59;46790.59;5412976;26;20007;-64
2024/04/10 10:08:56;;;;;;;5.85;0.95;;;;;;;-146.27;38.19;46828.41;5414019;26;20003;-66
2024/04/10 10:11:25;;;;;;;6.35;1.05;;;;;;;-146.27;38.56;46848.31;5413751;26;20003;-66
2024/04/10 10:13:57;;;;;;;3.75;0.82;;;;;;;-146.27;37.99;46854.31;5413727;26;20485;-66
2024/04/10 10:16:24;;;;;;;3.08;0.68;;;;;;;-146.27;36.58;46977.75;5413347;26;20499;-67
2024/04/10 10:18:56;;;;;;;7.47;1.25;;;;;;;-146.27;36.68;47059.38;5402913;26;20000;-67
2024/04/10 10:21:23;;;;;;;4.20;0.70;;;;;;;-146.27;36.50;47051.41;5368604;26;20420;-66
2024/04/10 10:24:14;;;;;;;6.18;1.08;;;;;;;-146.27;35.15;47141.00;5399160;26;20004;-67
2024/04/10 10:26:40;;;;;;;3.42;0.90;;;;;;;-146.27;34.78;47204.72;5348236;26;19996;-66
2024/04/10 10:29:09;;;;;;;3.35;0.60;;;;;;;-146.27;33.34;47300.31;5407180;26;20019;-66
2024/04/10 10:31:35;;;;;;;2.53;0.60;;;;;;;-146.27;33.75;47296.31;5390211;26;20440;-68
2024/04/10 10:34:12;;;;;;;3.15;0.68;;;;;;;-146.27;33.75;47336.16;5413039;26;19991;-69
2024/04/10 10:36:38;;;;;;;4.97;0.70;;;;;;;-146.27;33.31;47332.16;5381018;26;20010;-68
2024/04/10 10:39:10;;;;;;;4.18;0.70;;;;;;;-146.27;33.13;47368.00;5410483;26;20873;-66
2024/04/10 10:41:36;;;;;;;5.47;0.93;;;;;;;-146.27;33.13;47387.91;5398198;26;20094;-68
2024/04/10 10:44:02;;;;;;;4.53;0.60;;;;;;;-146.27;33.10;47348.09;5366849;26;20129;-67
2024/04/10 10:46:28;;;;;;;4.80;0.73;;;;;;;-146.27;33.40;47385.91;5400639;26;20069;-66
2024/04/10 10:48:53;;;;;;;2.33;0.73;;;;;;;-146.27;33.61;47344.09;5412191;26;20401;-67
2024/04/10 10:51:19;;;;;;;5.57;0.95;;;;;;;-146.27;33.08;47395.88;5393725;26;20050;-67
2024/04/10 10:53:46;;;;;;;6.68;0.68;;;;;;;-146.27;33.38;47375.97;5403003;26;20000;-66
2024/04/10 10:56:11;;;;;;;2.65;0.90;;;;;;;-146.27;32.00;47427.75;5371362;26;20077;-67
2024/04/10 10:58:37;;;;;;;4.93;0.55;;;;;;;-146.27;32.48;47427.75;5401469;26;20011;-67
2024/04/10 11:01:07;;;;;;;4.80;1.20;;;;;;;-146.27;32.72;47425.75;5370949;26;19999;-68
2024/04/10 11:03:32;;;;;;;6.35;1.02;;;;;;;-146.27;32.38;47429.72;5399554;26;20000;-67
2024/04/10 11:06:10;;;;;;;2.45;0.80;;;;;;;-146.27;32.07;47431.72;5400315;26;20028;-68
2024/04/10 11:08:36;;;;;;;3.75;0.80;;;;;;;-146.27;32.40;47433.72;5397326;26;20055;-71
2024/04/10 11:11:02;;;;;;;5.18;0.80;;;;;;;-146.27;32.43;47427.75;5405943;26;20036;-71